sensor_id;sensor_type;location;lat;lon;timestamp;pressure;altitude;pressure_sealevel;temperature;humidity
70976;BME280;58635;51.198;6.010;2023-01-16T00:01:55;99549.38;;;9.40;59.20
70976;BME280;58635;51.198;6.010;2023-01-16T00:04:21;99541.06;;;9.38;59.26
70976;BME280;58635;51.198;6.010;2023-01-16T00:06:47;99541.63;;;9.40;59.13
70976;BME280;58635;51.198;6.010;2023-01-16T00:09:13;99540.63;;;9.41;59.00
70976;BME280;58635;51.198;6.010;2023-01-16T00:11:39;99543.22;;;9.41;59.20
70976;BME280;58635;51.198;6.010;2023-01-16T00:14:04;99534.69;;;9.41;59.14
70976;BME280;58635;51.198;6.010;2023-01-16T00:16:30;99539.06;;;9.40;59.31
70976;BME280;58635;51.198;6.010;2023-01-16T00:18:55;99527.38;;;9.37;59.43
70976;BME280;58635;51.198;6.010;2023-01-16T00:21:22;99525.94;;;9.42;59.47
70976;BME280;58635;51.198;6.010;2023-01-16T00:23:52;99527.06;;;9.46;59.34
70976;BME280;58635;51.198;6.010;2023-01-16T00:26:17;99518.31;;;9.47;59.28
70976;BME280;58635;51.198;6.010;2023-01-16T00:28:43;99510.59;;;9.47;59.32
70976;BME280;58635;51.198;6.010;2023-01-16T00:31:10;99515.75;;;9.47;59.43
70976;BME280;58635;51.198;6.010;2023-01-16T00:33:36;99512.38;;;9.46;59.54
70976;BME280;58635;51.198;6.010;2023-01-16T00:36:03;99503.66;;;9.47;59.29
70976;BME280;58635;51.198;6.010;2023-01-16T00:38:29;99502.28;;;9.45;59.25
70976;BME280;58635;51.198;6.010;2023-01-16T00:40:55;99496.88;;;9.46;59.31
70976;BME280;58635;51.198;6.010;2023-01-16T00:43:21;99496.25;;;9.51;59.15
70976;BME280;58635;51.198;6.010;2023-01-16T00:45:46;99483.69;;;9.54;58.69
70976;BME280;58635;51.198;6.010;2023-01-16T00:48:11;99488.06;;;9.54;58.31
70976;BME280;58635;51.198;6.010;2023-01-16T00:50:38;99480.56;;;9.52;58.24
70976;BME280;58635;51.198;6.010;2023-01-16T00:53:04;99484.69;;;9.53;58.04
70976;BME280;58635;51.198;6.010;2023-01-16T00:55:29;99476.63;;;9.50;58.17
70976;BME280;58635;51.198;6.010;2023-01-16T00:57:54;99468.88;;;9.50;58.31
70976;BME280;58635;51.198;6.010;2023-01-16T01:00:20;99473.88;;;9.45;58.38
70976;BME280;58635;51.198;6.010;2023-01-16T01:02:50;99463.34;;;9.46;58.47
70976;BME280;58635;51.198;6.010;2023-01-16T01:05:16;99451.88;;;9.42;58.62
70976;BME280;58635;51.198;6.010;2023-01-16T01:07:42;99438.06;;;9.36;58.70
70976;BME280;58635;51.198;6.010;2023-01-16T01:10:09;99433.31;;;9.33;58.56
70976;BME280;58635;51.198;6.010;2023-01-16T01:12:34;99427.03;;;9.29;59.04
70976;BME280;58635;51.198;6.010;2023-01-16T01:14:59;99427.03;;;9.29;58.85
70976;BME280;58635;51.198;6.010;2023-01-16T01:17:25;99420.53;;;9.27;59.02
70976;BME280;58635;51.198;6.010;2023-01-16T01:19:50;99417.38;;;9.25;59.00
70976;BME280;58635;51.198;6.010;2023-01-16T01:22:16;99409.97;;;9.28;58.96
70976;BME280;58635;51.198;6.010;2023-01-16T01:24:42;99407.63;;;9.27;59.07
70976;BME280;58635;51.198;6.010;2023-01-16T01:27:09;99401.13;;;9.24;59.09
70976;BME280;58635;51.198;6.010;2023-01-16T01:29:34;99397.75;;;9.24;59.13
70976;BME280;58635;51.198;6.010;2023-01-16T01:32:00;99389.41;;;9.22;59.28
70976;BME280;58635;51.198;6.010;2023-01-16T01:34:27;99386.06;;;9.21;59.27
70976;BME280;58635;51.198;6.010;2023-01-16T01:36:56;99385.25;;;9.21;59.40
70976;BME280;58635;51.198;6.010;2023-01-16T01:39:21;99373.38;;;9.20;59.48
70976;BME280;58635;51.198;6.010;2023-01-16T01:41:47;99364.06;;;9.19;59.32
70976;BME280;58635;51.198;6.010;2023-01-16T01:44:54;99357.34;;;9.18;59.20
70976;BME280;58635;51.198;6.010;2023-01-16T01:47:25;99350.59;;;9.17;59.32
70976;BME280;58635;51.198;6.010;2023-01-16T01:49:52;99346.69;;;9.14;59.29
70976;BME280;58635;51.198;6.010;2023-01-16T01:52:20;99334.41;;;9.09;59.34
70976;BME280;58635;51.198;6.010;2023-01-16T01:54:51;99330.81;;;9.11;59.30
70976;BME280;58635;51.198;6.010;2023-01-16T01:57:24;99325.47;;;9.12;59.20
70976;BME280;58635;51.198;6.010;2023-01-16T01:59:59;99315.16;;;9.12;59.54
70976;BME280;58635;51.198;6.010;2023-01-16T02:02:29;99308.22;;;9.13;59.25
70976;BME280;58635;51.198;6.010;2023-01-16T02:04:56;99309.78;;;9.14;59.30
70976;BME280;58635;51.198;6.010;2023-01-16T02:07:23;99299.25;;;9.15;59.27
70976;BME280;58635;51.198;6.010;2023-01-16T02:09:53;99299.25;;;9.15;59.31
70976;BME280;58635;51.198;6.010;2023-01-16T02:12:21;99296.09;;;9.13;59.24
70976;BME280;58635;51.198;6.010;2023-01-16T02:14:47;99275.31;;;9.08;59.19
70976;BME280;58635;51.198;6.010;2023-01-16T02:17:19;99279.63;;;9.14;59.16
70976;BME280;58635;51.198;6.010;2023-01-16T02:47:01;99199.94;;;8.94;59.57
70976;BME280;58635;51.198;6.010;2023-01-16T02:49:36;99199.16;;;8.94;59.55
70976;BME280;58635;51.198;6.010;2023-01-16T02:52:13;99182.13;;;8.93;59.61
70976;BME280;58635;51.198;6.010;2023-01-16T02:54:56;99173.81;;;8.91;59.57
70976;BME280;58635;51.198;6.010;2023-01-16T02:57:27;99168.88;;;8.89;59.63
70976;BME280;58635;51.198;6.010;2023-01-16T02:59:54;99173.47;;;8.87;59.71
70976;BME280;58635;51.198;6.010;2023-01-16T03:02:20;99166.19;;;8.84;59.72
70976;BME280;58635;51.198;6.010;2023-01-16T03:04:48;99160.47;;;8.82;59.64
70976;BME280;58635;51.198;6.010;2023-01-16T03:15:22;99127.41;;;8.79;59.69
70976;BME280;58635;51.198;6.010;2023-01-16T03:18:02;99121.69;;;8.77;59.72
70976;BME280;58635;51.198;6.010;2023-01-16T03:23:18;99111.94;;;8.79;59.71
70976;BME280;58635;51.198;6.010;2023-01-16T03:26:05;99102.03;;;8.76;59.69
70976;BME280;58635;51.198;6.010;2023-01-16T03:28:43;99088.38;;;8.75;59.83
70976;BME280;58635;51.198;6.010;2023-01-16T03:31:18;99086.56;;;8.76;59.83
70976;BME280;58635;51.198;6.010;2023-01-16T03:33:51;99080.63;;;8.75;59.65
70976;BME280;58635;51.198;6.010;2023-01-16T03:38:54;99073.91;;;8.74;59.67
70976;BME280;58635;51.198;6.010;2023-01-16T03:41:24;99063.38;;;8.76;59.78
70976;BME280;58635;51.198;6.010;2023-01-16T03:43:55;99053.88;;;8.76;59.79
70976;BME280;58635;51.198;6.010;2023-01-16T03:46:29;99040.19;;;8.76;59.57
70976;BME280;58635;51.198;6.010;2023-01-16T03:49:07;99030.69;;;8.76;59.71
70976;BME280;58635;51.198;6.010;2023-01-16T03:51:50;99016.44;;;8.74;59.59
70976;BME280;58635;51.198;6.010;2023-01-16T03:59:10;98994.25;;;8.73;59.74
70976;BME280;58635;51.198;6.010;2023-01-16T04:04:26;98978.00;;;8.61;59.64
70976;BME280;58635;51.198;6.010;2023-01-16T04:07:01;98962.53;;;8.61;59.74
70976;BME280;58635;51.198;6.010;2023-01-16T04:09:58;98954.81;;;8.61;59.70
70976;BME280;58635;51.198;6.010;2023-01-16T04:12:45;98951.44;;;8.60;59.78
70976;BME280;58635;51.198;6.010;2023-01-16T04:15:14;98940.34;;;8.60;59.72
70976;BME280;58635;51.198;6.010;2023-01-16T04:17:41;98934.19;;;8.61;59.79
70976;BME280;58635;51.198;6.010;2023-01-16T04:20:08;98918.72;;;8.61;59.77
70976;BME280;58635;51.198;6.010;2023-01-16T04:22:34;98911.22;;;8.59;59.87
70976;BME280;58635;51.198;6.010;2023-01-16T04:25:02;98898.34;;;8.59;59.87
70976;BME280;58635;51.198;6.010;2023-01-16T04:27:28;98891.63;;;8.58;60.13
70976;BME280;58635;51.198;6.010;2023-01-16T04:29:54;98882.66;;;8.61;59.95
70976;BME280;58635;51.198;6.010;2023-01-16T04:32:20;98879.28;;;8.60;59.80
70976;BME280;58635;51.198;6.010;2023-01-16T04:34:45;98867.19;;;8.61;59.73
70976;BME280;58635;51.198;6.010;2023-01-16T04:37:16;98856.31;;;8.59;59.83
70976;BME280;58635;51.198;6.010;2023-01-16T04:39:42;98857.09;;;8.59;59.56
70976;BME280;58635;51.198;6.010;2023-01-16T04:42:08;98846.81;;;8.59;59.79
70976;BME280;58635;51.198;6.010;2023-01-16T04:44:34;98837.28;;;8.60;59.70
70976;BME280;58635;51.198;6.010;2023-01-16T04:46:59;98827.75;;;8.60;59.50
70976;BME280;58635;51.198;6.010;2023-01-16T04:49:25;98819.56;;;8.63;59.45
70976;BME280;58635;51.198;6.010;2023-01-16T04:51:50;98803.31;;;8.63;59.24
70976;BME280;58635;51.198;6.010;2023-01-16T04:54:17;98794.81;;;8.62;59.46
70976;BME280;58635;51.198;6.010;2023-01-16T04:56:43;98788.09;;;8.61;59.41
70976;BME280;58635;51.198;6.010;2023-01-16T04:59:10;98786.28;;;8.62;59.16
70976;BME280;58635;51.198;6.010;2023-01-16T05:01:35;98782.94;;;8.61;59.29
70976;BME280;58635;51.198;6.010;2023-01-16T05:04:03;98771.06;;;8.60;59.12
70976;BME280;58635;51.198;6.010;2023-01-16T05:06:30;98761.53;;;8.61;59.16
70976;BME280;58635;51.198;6.010;2023-01-16T05:08:55;98758.97;;;8.61;59.34
70976;BME280;58635;51.198;6.010;2023-01-16T05:11:21;98747.88;;;8.60;59.09
70976;BME280;58635;51.198;6.010;2023-01-16T05:13:46;98736.78;;;8.60;58.91
70976;BME280;58635;51.198;6.010;2023-01-16T05:16:11;98724.38;;;8.57;58.86
70976;BME280;58635;51.198;6.010;2023-01-16T05:18:37;98726.16;;;8.56;58.86
70976;BME280;58635;51.198;6.010;2023-01-16T05:21:03;98710.38;;;8.53;58.96
70976;BME280;58635;51.198;6.010;2023-01-16T05:23:30;98706.44;;;8.50;58.79
70976;BME280;58635;51.198;6.010;2023-01-16T05:25:58;98704.09;;;8.48;58.80
70976;BME280;58635;51.198;6.010;2023-01-16T05:28:24;98686.84;;;8.49;58.80
70976;BME280;58635;51.198;6.010;2023-01-16T05:30:50;98680.69;;;8.50;58.69
70976;BME280;58635;51.198;6.010;2023-01-16T05:33:16;98671.94;;;8.51;58.75
70976;BME280;58635;51.198;6.010;2023-01-16T05:35:41;98661.63;;;8.51;58.80
70976;BME280;58635;51.198;6.010;2023-01-16T05:38:07;98644.38;;;8.52;58.81
70976;BME280;58635;51.198;6.010;2023-01-16T05:40:32;98641.03;;;8.51;58.59
70976;BME280;58635;51.198;6.010;2023-01-16T05:42:58;98640.81;;;8.53;58.80
70976;BME280;58635;51.198;6.010;2023-01-16T05:45:23;98635.66;;;8.53;58.88
70976;BME280;58635;51.198;6.010;2023-01-16T05:47:49;98624.00;;;8.50;58.86
70976;BME280;58635;51.198;6.010;2023-01-16T05:50:14;98619.63;;;8.50;58.86
70976;BME280;58635;51.198;6.010;2023-01-16T05:52:40;98612.69;;;8.51;58.90
70976;BME280;58635;51.198;6.010;2023-01-16T05:55:05;98603.16;;;8.52;59.03
70976;BME280;58635;51.198;6.010;2023-01-16T05:57:31;98596.44;;;8.50;59.11
70976;BME280;58635;51.198;6.010;2023-01-16T05:59:56;98583.56;;;8.50;58.99
70976;BME280;58635;51.198;6.010;2023-01-16T06:02:22;98571.72;;;8.49;58.94
70976;BME280;58635;51.198;6.010;2023-01-16T06:04:47;98552.91;;;8.49;59.30
70976;BME280;58635;51.198;6.010;2023-01-16T06:07:13;98551.34;;;8.48;59.26
70976;BME280;58635;51.198;6.010;2023-01-16T06:09:42;98549.22;;;8.45;59.28
70976;BME280;58635;51.198;6.010;2023-01-16T06:12:07;98540.19;;;8.42;59.24
70976;BME280;58635;51.198;6.010;2023-01-16T06:14:35;98540.25;;;8.47;59.17
70976;BME280;58635;51.198;6.010;2023-01-16T06:17:01;98528.69;;;8.50;59.41
70976;BME280;58635;51.198;6.010;2023-01-16T06:19:27;98521.69;;;8.45;59.36
70976;BME280;58635;51.198;6.010;2023-01-16T07:28:05;98291.19;;;8.31;62.19
70976;BME280;58635;51.198;6.010;2023-01-16T07:30:30;98285.03;;;8.32;62.35
70976;BME280;58635;51.198;6.010;2023-01-16T07:32:56;98280.88;;;8.31;62.50
70976;BME280;58635;51.198;6.010;2023-01-16T07:35:21;98270.91;;;8.35;62.40
70976;BME280;58635;51.198;6.010;2023-01-16T07:37:47;98271.19;;;8.38;62.64
70976;BME280;58635;51.198;6.010;2023-01-16T07:40:12;98260.66;;;8.40;62.82
70976;BME280;58635;51.198;6.010;2023-01-16T07:42:38;98250.13;;;8.41;62.95
70976;BME280;58635;51.198;6.010;2023-01-16T07:45:04;98241.06;;;8.39;63.09
70976;BME280;58635;51.198;6.010;2023-01-16T07:47:29;98242.09;;;8.38;63.21
70976;BME280;58635;51.198;6.010;2023-01-16T07:49:55;98229.22;;;8.38;63.20
70976;BME280;58635;51.198;6.010;2023-01-16T07:52:22;98223.53;;;8.36;63.38
70976;BME280;58635;51.198;6.010;2023-01-16T07:54:47;98225.09;;;8.37;63.66
70976;BME280;58635;51.198;6.010;2023-01-16T07:57:12;98214.25;;;8.35;63.26
70976;BME280;58635;51.198;6.010;2023-01-16T07:59:38;98206.28;;;8.36;63.49
70976;BME280;58635;51.198;6.010;2023-01-16T08:02:05;98181.53;;;8.35;63.62
70976;BME280;58635;51.198;6.010;2023-01-16T08:04:30;98192.63;;;8.36;63.45
70976;BME280;58635;51.198;6.010;2023-01-16T08:06:55;98182.84;;;8.38;63.43
70976;BME280;58635;51.198;6.010;2023-01-16T08:09:21;98182.16;;;8.42;63.39
70976;BME280;58635;51.198;6.010;2023-01-16T08:11:46;98176.50;;;8.45;63.36
70976;BME280;58635;51.198;6.010;2023-01-16T08:14:12;98169.78;;;8.44;63.29
70976;BME280;58635;51.198;6.010;2023-01-16T08:16:39;98172.38;;;8.44;63.08
70976;BME280;58635;51.198;6.010;2023-01-16T08:19:04;98173.69;;;8.47;63.25
70976;BME280;58635;51.198;6.010;2023-01-16T08:21:30;98164.16;;;8.47;62.76
70976;BME280;58635;51.198;6.010;2023-01-16T08:23:55;98157.25;;;8.53;62.89
70976;BME280;58635;51.198;6.010;2023-01-16T08:26:21;98147.75;;;8.54;62.76
70976;BME280;58635;51.198;6.010;2023-01-16T08:28:46;98155.22;;;8.55;62.57
70976;BME280;58635;51.198;6.010;2023-01-16T08:31:13;98143.13;;;8.56;62.56
70976;BME280;58635;51.198;6.010;2023-01-16T08:33:41;98134.63;;;8.60;62.10
70976;BME280;58635;51.198;6.010;2023-01-16T08:36:09;98133.63;;;8.61;61.97
70976;BME280;58635;51.198;6.010;2023-01-16T08:38:35;98134.16;;;8.63;61.79
70976;BME280;58635;51.198;6.010;2023-01-16T08:41:01;98129.28;;;8.67;61.64
70976;BME280;58635;51.198;6.010;2023-01-16T08:43:26;98119.75;;;8.67;61.63
70976;BME280;58635;51.198;6.010;2023-01-16T08:46:22;98128.81;;;8.70;61.56
70976;BME280;58635;51.198;6.010;2023-01-16T08:49:14;98119.78;;;8.72;61.29
70976;BME280;58635;51.198;6.010;2023-01-16T08:51:58;98120.56;;;8.73;61.26
70976;BME280;58635;51.198;6.010;2023-01-16T08:54:24;98111.03;;;8.73;61.18
70976;BME280;58635;51.198;6.010;2023-01-16T08:56:49;98106.66;;;8.74;61.25
70976;BME280;58635;51.198;6.010;2023-01-16T08:59:14;98098.94;;;8.74;61.38
70976;BME280;58635;51.198;6.010;2023-01-16T09:01:40;98105.63;;;8.75;61.33
70976;BME280;58635;51.198;6.010;2023-01-16T09:04:06;98105.94;;;8.78;61.42
70976;BME280;58635;51.198;6.010;2023-01-16T09:06:32;98100.53;;;8.80;61.13
70976;BME280;58635;51.198;6.010;2023-01-16T09:09:04;98111.38;;;8.82;61.11
70976;BME280;58635;51.198;6.010;2023-01-16T09:11:30;98094.34;;;8.81;61.04
70976;BME280;58635;51.198;6.010;2023-01-16T09:14:15;98087.91;;;8.78;60.98
70976;BME280;58635;51.198;6.010;2023-01-16T09:16:40;98089.97;;;8.82;60.92
70976;BME280;58635;51.198;6.010;2023-01-16T09:19:05;98078.88;;;8.81;61.03
70976;BME280;58635;51.198;6.010;2023-01-16T09:21:31;98097.97;;;8.85;60.90
70976;BME280;58635;51.198;6.010;2023-01-16T09:23:56;98087.97;;;8.89;60.62
70976;BME280;58635;51.198;6.010;2023-01-16T09:26:22;98083.28;;;8.86;60.33
70976;BME280;58635;51.198;6.010;2023-01-16T09:28:47;98085.41;;;8.89;60.42
70976;BME280;58635;51.198;6.010;2023-01-16T09:31:12;98083.59;;;8.89;60.09
70976;BME280;58635;51.198;6.010;2023-01-16T09:33:38;98062.97;;;8.89;59.97
70976;BME280;58635;51.198;6.010;2023-01-16T09:36:04;98057.84;;;8.94;60.08
70976;BME280;58635;51.198;6.010;2023-01-16T09:38:30;98061.72;;;8.97;59.78
70976;BME280;58635;51.198;6.010;2023-01-16T09:40:57;98058.41;;;9.01;59.67
70976;BME280;58635;51.198;6.010;2023-01-16T09:46:14;98056.09;;;9.05;59.44
70976;BME280;58635;51.198;6.010;2023-01-16T09:48:48;98047.34;;;9.06;59.57
70976;BME280;58635;51.198;6.010;2023-01-16T09:51:20;98055.31;;;9.04;59.89
70976;BME280;58635;51.198;6.010;2023-01-16T09:54:09;98037.28;;;9.04;59.46
70976;BME280;58635;51.198;6.010;2023-01-16T09:57:00;98040.09;;;9.03;59.55
70976;BME280;58635;51.198;6.010;2023-01-16T09:59:49;98033.16;;;9.03;59.60
70976;BME280;58635;51.198;6.010;2023-01-16T10:02:27;98028.28;;;9.12;59.54
70976;BME280;58635;51.198;6.010;2023-01-16T10:04:56;98025.47;;;9.14;59.48
70976;BME280;58635;51.198;6.010;2023-01-16T10:22:21;97997.66;;;9.26;59.19
70976;BME280;58635;51.198;6.010;2023-01-16T10:27:58;97978.88;;;9.35;59.18
70976;BME280;58635;51.198;6.010;2023-01-16T10:30:40;97977.31;;;9.40;59.10
70976;BME280;58635;51.198;6.010;2023-01-16T10:33:18;97966.50;;;9.43;58.85
70976;BME280;58635;51.198;6.010;2023-01-16T10:35:49;97962.09;;;9.43;58.80
70976;BME280;58635;51.198;6.010;2023-01-16T10:38:25;97952.84;;;9.47;58.85
70976;BME280;58635;51.198;6.010;2023-01-16T10:41:22;97940.97;;;9.51;58.75
70976;BME280;58635;51.198;6.010;2023-01-16T10:44:35;97938.41;;;9.56;58.66
70976;BME280;58635;51.198;6.010;2023-01-16T10:47:27;97933.53;;;9.60;58.44
70976;BME280;58635;51.198;6.010;2023-01-16T10:50:13;97927.59;;;9.59;58.49
70976;BME280;58635;51.198;6.010;2023-01-16T10:52:39;97933.25;;;9.61;58.40
70976;BME280;58635;51.198;6.010;2023-01-16T10:55:06;97917.53;;;9.63;58.30
70976;BME280;58635;51.198;6.010;2023-01-16T10:57:32;97908.47;;;9.65;58.49
70976;BME280;58635;51.198;6.010;2023-01-16T11:00:18;97904.09;;;9.76;58.30
70976;BME280;58635;51.198;6.010;2023-01-16T11:02:46;97900.50;;;9.87;58.02
70976;BME280;58635;51.198;6.010;2023-01-16T11:05:32;97886.28;;;10.00;57.75
70976;BME280;58635;51.198;6.010;2023-01-16T11:08:13;97888.63;;;10.07;57.41
70976;BME280;58635;51.198;6.010;2023-01-16T11:10:45;97882.13;;;10.14;57.29
70976;BME280;58635;51.198;6.010;2023-01-16T11:13:25;97874.13;;;10.16;56.50
70976;BME280;58635;51.198;6.010;2023-01-16T11:19:15;97853.72;;;10.14;56.59
70976;BME280;58635;51.198;6.010;2023-01-16T11:21:42;97850.63;;;10.12;56.44
70976;BME280;58635;51.198;6.010;2023-01-16T11:24:35;97847.81;;;10.09;56.69
70976;BME280;58635;51.198;6.010;2023-01-16T11:27:12;97834.63;;;10.10;56.85
70976;BME280;58635;51.198;6.010;2023-01-16T11:29:39;97835.09;;;10.17;56.35
70976;BME280;58635;51.198;6.010;2023-01-16T11:32:11;97823.78;;;10.23;56.37
70976;BME280;58635;51.198;6.010;2023-01-16T11:34:42;97813.94;;;10.25;56.44
70976;BME280;58635;51.198;6.010;2023-01-16T11:37:11;97810.81;;;10.29;56.50
70976;BME280;58635;51.198;6.010;2023-01-16T11:39:38;97811.09;;;10.32;56.41
70976;BME280;58635;51.198;6.010;2023-01-16T11:42:08;97801.50;;;10.38;56.14
70976;BME280;58635;51.198;6.010;2023-01-16T11:44:54;97790.63;;;10.41;56.05
70976;BME280;58635;51.198;6.010;2023-01-16T11:47:45;97792.22;;;10.37;56.00
70976;BME280;58635;51.198;6.010;2023-01-16T11:50:36;97781.88;;;10.37;55.77
70976;BME280;58635;51.198;6.010;2023-01-16T11:53:02;97779.81;;;10.34;56.02
70976;BME280;58635;51.198;6.010;2023-01-16T11:55:41;97774.13;;;10.37;55.82
70976;BME280;58635;51.198;6.010;2023-01-16T12:04:13;97760.66;;;10.40;55.80
70976;BME280;58635;51.198;6.010;2023-01-16T12:10:00;97737.97;;;10.37;55.59
70976;BME280;58635;51.198;6.010;2023-01-16T12:12:43;97731.25;;;10.36;55.56
70976;BME280;58635;51.198;6.010;2023-01-16T12:21:21;97710.56;;;10.36;55.49
70976;BME280;58635;51.198;6.010;2023-01-16T12:26:32;97697.16;;;10.34;55.64
70976;BME280;58635;51.198;6.010;2023-01-16T12:32:13;97690.72;;;10.31;56.05
70976;BME280;58635;51.198;6.010;2023-01-16T12:35:14;97685.56;;;10.31;56.03
70976;BME280;58635;51.198;6.010;2023-01-16T12:38:25;97683.75;;;10.32;55.74
70976;BME280;58635;51.198;6.010;2023-01-16T12:41:19;97675.47;;;10.30;55.74
70976;BME280;58635;51.198;6.010;2023-01-16T12:49:37;97661.97;;;10.43;55.71
70976;BME280;58635;51.198;6.010;2023-01-16T12:52:31;97653.19;;;10.44;55.67
70976;BME280;58635;51.198;6.010;2023-01-16T12:57:59;97642.59;;;10.40;55.57
70976;BME280;58635;51.198;6.010;2023-01-16T13:00:36;97634.88;;;10.35;55.56
70976;BME280;58635;51.198;6.010;2023-01-16T13:03:15;97622.25;;;10.34;55.39
70976;BME280;58635;51.198;6.010;2023-01-16T13:05:42;97623.56;;;10.31;55.58
70976;BME280;58635;51.198;6.010;2023-01-16T13:08:26;97628.19;;;10.29;55.51
70976;BME280;58635;51.198;6.010;2023-01-16T13:10:56;97613.47;;;10.30;55.53
70976;BME280;58635;51.198;6.010;2023-01-16T13:13:53;97608.06;;;10.31;55.60
70976;BME280;58635;51.198;6.010;2023-01-16T13:16:31;97605.22;;;10.33;55.64
70976;BME280;58635;51.198;6.010;2023-01-16T13:19:01;97605.16;;;10.38;55.38
70976;BME280;58635;51.198;6.010;2023-01-16T13:21:32;97594.06;;;10.37;55.31
70976;BME280;58635;51.198;6.010;2023-01-16T13:24:20;97597.69;;;10.36;55.40
70976;BME280;58635;51.198;6.010;2023-01-16T13:26:53;97595.38;;;10.35;55.45
70976;BME280;58635;51.198;6.010;2023-01-16T13:29:27;97586.34;;;10.32;55.81
70976;BME280;58635;51.198;6.010;2023-01-16T13:32:02;97588.16;;;10.32;56.16
70976;BME280;58635;51.198;6.010;2023-01-16T13:40:03;97583.00;;;10.32;56.48
70976;BME280;58635;51.198;6.010;2023-01-16T13:42:34;97576.53;;;10.29;56.59
70976;BME280;58635;51.198;6.010;2023-01-16T13:45:07;97576.03;;;10.27;56.69
70976;BME280;58635;51.198;6.010;2023-01-16T13:47:59;97581.25;;;10.22;56.92
70976;BME280;58635;51.198;6.010;2023-01-16T13:50:27;97572.22;;;10.19;56.83
70976;BME280;58635;51.198;6.010;2023-01-16T13:52:55;97576.59;;;10.19;57.00
70976;BME280;58635;51.198;6.010;2023-01-16T13:55:33;97569.38;;;10.16;56.96
70976;BME280;58635;51.198;6.010;2023-01-16T13:58:22;97567.06;;;10.14;57.25
70976;BME280;58635;51.198;6.010;2023-01-16T14:01:02;97568.09;;;10.13;57.32
70976;BME280;58635;51.198;6.010;2023-01-16T14:03:30;97559.63;;;10.08;57.48
70976;BME280;58635;51.198;6.010;2023-01-16T14:17:26;97554.47;;;10.03;58.08
70976;BME280;58635;51.198;6.010;2023-01-16T14:20:00;97552.66;;;10.03;58.26
70976;BME280;58635;51.198;6.010;2023-01-16T14:22:41;97550.84;;;10.04;58.34
70976;BME280;58635;51.198;6.010;2023-01-16T14:25:27;97541.84;;;10.01;58.48
70976;BME280;58635;51.198;6.010;2023-01-16T14:27:53;97549.31;;;10.03;58.58
70976;BME280;58635;51.198;6.010;2023-01-16T14:30:25;97547.22;;;10.05;58.65
70976;BME280;58635;51.198;6.010;2023-01-16T14:32:56;97540.53;;;10.04;58.77
70976;BME280;58635;51.198;6.010;2023-01-16T14:35:26;97536.41;;;10.08;58.79
70976;BME280;58635;51.198;6.010;2023-01-16T14:38:01;97548.00;;;10.10;58.82
70976;BME280;58635;51.198;6.010;2023-01-16T14:40:33;97544.63;;;10.10;59.07
70976;BME280;58635;51.198;6.010;2023-01-16T14:43:30;97542.31;;;10.08;59.14
70976;BME280;58635;51.198;6.010;2023-01-16T14:48:59;97548.88;;;9.95;59.47
70976;BME280;58635;51.198;6.010;2023-01-16T14:52:09;97545.53;;;9.90;59.67
70976;BME280;58635;51.198;6.010;2023-01-16T14:54:54;97537.00;;;9.89;59.79
70976;BME280;58635;51.198;6.010;2023-01-16T14:57:39;97537.81;;;9.85;59.96
70976;BME280;58635;51.198;6.010;2023-01-16T15:00:16;97535.25;;;9.80;60.19
70976;BME280;58635;51.198;6.010;2023-01-16T15:02:52;97531.19;;;9.74;60.08
70976;BME280;58635;51.198;6.010;2023-01-16T15:05:34;97546.41;;;9.70;60.24
70976;BME280;58635;51.198;6.010;2023-01-16T15:08:18;97537.66;;;9.66;60.23
70976;BME280;58635;51.198;6.010;2023-01-16T15:10:46;97540.00;;;9.62;60.53
70976;BME280;58635;51.198;6.010;2023-01-16T15:13:18;97542.59;;;9.57;60.73
70976;BME280;58635;51.198;6.010;2023-01-16T15:15:58;97540.06;;;9.52;60.85
70976;BME280;58635;51.198;6.010;2023-01-16T15:18:25;97541.09;;;9.51;61.05
70976;BME280;58635;51.198;6.010;2023-01-16T15:21:15;97537.25;;;9.49;60.94
70976;BME280;58635;51.198;6.010;2023-01-16T15:24:00;97535.94;;;9.46;60.88
70976;BME280;58635;51.198;6.010;2023-01-16T15:26:35;97538.78;;;9.50;61.17
70976;BME280;58635;51.198;6.010;2023-01-16T15:32:16;97542.91;;;9.51;61.02
70976;BME280;58635;51.198;6.010;2023-01-16T15:34:47;97543.94;;;9.50;61.07
70976;BME280;58635;51.198;6.010;2023-01-16T15:37:22;97537.50;;;9.47;61.17
70976;BME280;58635;51.198;6.010;2023-01-16T15:39:48;97534.66;;;9.49;61.05
70976;BME280;58635;51.198;6.010;2023-01-16T15:45:04;97535.66;;;9.53;61.04
70976;BME280;58635;51.198;6.010;2023-01-16T15:48:07;97541.59;;;9.53;60.99
70976;BME280;58635;51.198;6.010;2023-01-16T15:53:08;97533.31;;;9.56;61.00
70976;BME280;58635;51.198;6.010;2023-01-16T15:55:46;97544.13;;;9.58;61.07
70976;BME280;58635;51.198;6.010;2023-01-16T15:58:21;97539.75;;;9.59;61.17
70976;BME280;58635;51.198;6.010;2023-01-16T16:00:58;97548.28;;;9.59;61.03
70976;BME280;58635;51.198;6.010;2023-01-16T16:03:29;97546.72;;;9.58;61.05
70976;BME280;58635;51.198;6.010;2023-01-16T16:05:59;97542.59;;;9.57;61.11
70976;BME280;58635;51.198;6.010;2023-01-16T16:08:30;97542.88;;;9.56;60.98
70976;BME280;58635;51.198;6.010;2023-01-16T16:10:59;97542.88;;;9.56;60.74
70976;BME280;58635;51.198;6.010;2023-01-16T16:13:45;97538.75;;;9.55;60.96
70976;BME280;58635;51.198;6.010;2023-01-16T16:16:25;97540.28;;;9.56;61.06
70976;BME280;58635;51.198;6.010;2023-01-16T16:19:29;97540.81;;;9.53;60.96
70976;BME280;58635;51.198;6.010;2023-01-16T16:21:56;97543.41;;;9.53;61.07
70976;BME280;58635;51.198;6.010;2023-01-16T16:24:45;97547.03;;;9.52;61.00
70976;BME280;58635;51.198;6.010;2023-01-16T16:27:14;97554.75;;;9.52;61.01
70976;BME280;58635;51.198;6.010;2023-01-16T16:29:41;97544.94;;;9.54;61.03
70976;BME280;58635;51.198;6.010;2023-01-16T16:32:11;97546.22;;;9.56;60.96
70976;BME280;58635;51.198;6.010;2023-01-16T16:34:42;97540.28;;;9.56;60.84
70976;BME280;58635;51.198;6.010;2023-01-16T16:37:14;97548.81;;;9.56;60.85
70976;BME280;58635;51.198;6.010;2023-01-16T16:39:52;97544.41;;;9.57;60.98
70976;BME280;58635;51.198;6.010;2023-01-16T16:47:39;97552.69;;;9.54;61.10
70976;BME280;58635;51.198;6.010;2023-01-16T16:52:52;97559.66;;;9.53;61.00
70976;BME280;58635;51.198;6.010;2023-01-16T16:55:33;97557.06;;;9.53;61.07
70976;BME280;58635;51.198;6.010;2023-01-16T16:58:02;97564.53;;;9.55;61.08
70976;BME280;58635;51.198;6.010;2023-01-16T17:00:29;97560.16;;;9.55;61.04